createdAt,value
2022-08-23T00:01:14.945Z,99344.78
2022-08-23T00:07:17.289Z,99332.47
2022-08-23T00:13:19.256Z,99341.91
2022-08-23T00:19:23.055Z,99350.03
2022-08-23T00:25:25.153Z,99347.84
2022-08-23T00:31:27.179Z,99347.50
2022-08-23T00:37:32.382Z,99347.66
2022-08-23T00:44:00.149Z,99335.13
2022-08-23T00:50:36.678Z,99338.00
2022-08-23T00:56:40.369Z,99339.09
2022-08-23T01:02:44.988Z,99346.44
2022-08-23T01:08:54.571Z,99344.38
2022-08-23T01:15:09.593Z,99352.06
2022-08-23T01:21:53.146Z,99342.78
2022-08-23T01:27:57.514Z,99347.25
2022-08-23T01:34:08.085Z,99346.34
2022-08-23T01:40:10.863Z,99347.16
2022-08-23T01:46:20.590Z,99345.97
2022-08-23T01:52:22.561Z,99353.56
2022-08-23T01:58:24.942Z,99347.31
2022-08-23T02:04:27.862Z,99352.72
2022-08-23T02:10:29.870Z,99358.81
2022-08-23T02:16:39.599Z,99369.84
2022-08-23T02:22:43.808Z,99362.63
2022-08-23T02:28:46.490Z,99364.31
2022-08-23T02:34:51.143Z,99377.78
2022-08-23T02:41:07.515Z,99388.09
2022-08-23T02:47:11.899Z,99401.00
2022-08-23T02:53:14.201Z,99394.03
2022-08-23T02:59:16.253Z,99399.16
2022-08-23T03:05:18.503Z,99393.06
2022-08-23T03:11:23.339Z,99386.63
2022-08-23T03:17:25.403Z,99391.63
2022-08-23T03:23:27.756Z,99395.34
2022-08-23T03:29:29.809Z,99388.44
2022-08-23T03:35:31.909Z,99383.56
2022-08-23T03:41:34.270Z,99388.03
2022-08-23T03:47:36.363Z,99388.50
2022-08-23T03:53:38.349Z,99390.75
2022-08-23T03:59:42.600Z,99397.47
2022-08-23T04:05:44.878Z,99394.69
2022-08-23T04:11:46.837Z,99405.06
2022-08-23T04:17:48.904Z,99404.97
2022-08-23T04:23:52.751Z,99410.56
2022-08-23T04:29:55.130Z,99417.13
2022-08-23T04:35:57.557Z,99414.50
2022-08-23T04:42:18.272Z,99419.31
2022-08-23T04:48:20.231Z,99421.59
2022-08-23T04:54:23.111Z,99425.06
2022-08-23T05:00:28.208Z,99429.56
2022-08-23T05:06:31.499Z,99443.88
2022-08-23T05:12:34.366Z,99440.66
2022-08-23T05:18:36.634Z,99451.38
2022-08-23T05:24:38.646Z,99449.78
2022-08-23T05:30:40.798Z,99448.84
2022-08-23T05:36:55.933Z,99458.94
2022-08-23T05:42:58.297Z,99458.38
2022-08-23T05:49:00.328Z,99461.25
2022-08-23T05:55:02.798Z,99471.22
2022-08-23T06:01:05.097Z,99482.97
2022-08-23T06:07:07.233Z,99482.94
2022-08-23T06:13:09.228Z,99487.19
2022-08-23T06:19:11.904Z,99483.00
2022-08-23T06:25:13.886Z,99486.72
2022-08-23T06:31:36.660Z,99491.94
2022-08-23T06:37:39.381Z,99495.31
2022-08-23T06:43:41.466Z,99492.25
2022-08-23T06:49:51.095Z,99492.66
2022-08-23T06:56:00.478Z,99485.44
2022-08-23T07:02:06.609Z,99508.03
2022-08-23T07:08:08.623Z,99493.16
2022-08-23T07:14:16.271Z,99496.19
2022-08-23T07:20:18.353Z,99479.53
2022-08-23T07:26:21.527Z,99484.63
2022-08-23T07:32:23.527Z,99487.06
2022-08-23T07:38:25.533Z,99493.44
2022-08-23T07:44:34.285Z,99486.03
2022-08-23T07:50:36.283Z,99496.22
2022-08-23T07:56:38.676Z,99500.97
2022-08-23T08:02:41.215Z,99498.66
2022-08-23T08:08:44.557Z,99502.97
2022-08-23T08:14:48.438Z,99506.56
2022-08-23T08:20:51.276Z,99516.16
2022-08-23T08:26:53.385Z,99524.56
2022-08-23T08:32:55.587Z,99531.81
2022-08-23T08:39:00.781Z,99531.91
2022-08-23T08:45:15.020Z,99512.72
2022-08-23T08:51:45.367Z,99514.03
2022-08-23T08:57:49.711Z,99511.25
2022-08-23T09:03:52.526Z,99514.22
2022-08-23T09:10:42.712Z,99517.25
2022-08-23T09:16:57.592Z,99518.47
2022-08-23T09:23:18.969Z,99520.38
2022-08-23T09:29:33.000Z,99515.91
2022-08-23T09:35:34.980Z,99522.59
2022-08-23T09:41:42.148Z,99508.88
2022-08-23T09:47:44.981Z,99503.53
2022-08-23T09:53:51.700Z,99505.34
2022-08-23T09:59:56.432Z,99491.38
2022-08-23T10:06:01.559Z,99488.09
2022-08-23T10:12:03.948Z,99496.81
2022-08-23T10:18:51.329Z,99489.19
2022-08-23T10:25:08.845Z,99496.66
2022-08-23T10:31:31.402Z,99493.59
2022-08-23T10:38:02.108Z,99479.38
2022-08-23T10:44:46.420Z,99487.06
2022-08-23T10:51:22.591Z,99491.91
2022-08-23T10:57:34.189Z,99476.38
2022-08-23T11:03:45.127Z,99470.72
2022-08-23T11:10:05.830Z,99466.38
2022-08-23T11:16:30.177Z,99470.59
2022-08-23T11:22:54.538Z,99462.00
2022-08-23T11:29:10.796Z,99473.81
2022-08-23T11:35:43.243Z,99471.34
2022-08-23T11:41:55.282Z,99465.38
2022-08-23T11:48:21.907Z,99462.72
2022-08-23T11:55:02.383Z,99458.16
2022-08-23T12:01:13.121Z,99459.31
2022-08-23T12:07:31.278Z,99459.84
2022-08-23T12:14:01.618Z,99454.84
2022-08-23T12:20:17.219Z,99459.22
2022-08-23T12:26:47.307Z,99459.22
2022-08-23T12:33:04.746Z,99443.31
2022-08-23T12:39:40.230Z,99441.53
2022-08-23T12:45:49.563Z,99433.66
2022-08-23T12:51:54.785Z,99444.72
2022-08-23T12:57:58.161Z,99431.31
2022-08-23T13:04:12.818Z,99421.84
2022-08-23T13:10:15.336Z,99426.28
2022-08-23T13:16:38.450Z,99431.16
2022-08-23T13:22:58.466Z,99425.03
2022-08-23T13:29:10.043Z,99416.06
2022-08-23T13:35:43.573Z,99423.72
2022-08-23T13:41:46.644Z,99432.44
2022-08-23T13:47:55.916Z,99429.09
2022-08-23T13:54:03.734Z,99418.41
2022-08-23T14:00:10.833Z,99408.84
2022-08-23T14:06:13.637Z,99414.28
2022-08-23T14:12:21.270Z,99408.94
2022-08-23T14:18:23.504Z,99406.59
2022-08-23T14:24:27.146Z,99401.25
2022-08-23T14:30:34.264Z,99384.88
2022-08-23T14:36:36.280Z,99401.16
2022-08-23T14:42:38.341Z,99401.59
2022-08-23T14:48:40.539Z,99397.66
2022-08-23T14:54:43.232Z,99388.75
2022-08-23T15:00:45.639Z,99388.16
2022-08-23T15:07:14.139Z,99383.63
2022-08-23T15:13:26.986Z,99380.06
2022-08-23T15:19:30.730Z,99383.47
2022-08-23T15:25:36.313Z,99377.66
2022-08-23T15:31:38.343Z,99384.50
2022-08-23T15:37:40.610Z,99376.44
2022-08-23T15:43:45.962Z,99380.25
2022-08-23T15:49:48.750Z,99377.56
2022-08-23T15:55:52.015Z,99378.16
2022-08-23T16:01:54.057Z,99383.88
2022-08-23T16:07:58.025Z,99382.78
2022-08-23T16:14:01.683Z,99383.69
2022-08-23T16:20:06.402Z,99378.22
2022-08-23T16:26:15.112Z,99372.69
2022-08-23T16:32:17.798Z,99386.75
2022-08-23T16:38:19.803Z,99374.09
2022-08-23T16:44:21.902Z,99380.19
2022-08-23T16:50:24.149Z,99383.09
2022-08-23T16:56:26.121Z,99380.19
2022-08-23T17:02:34.856Z,99382.50
2022-08-23T17:08:37.446Z,99379.34
2022-08-23T17:14:39.528Z,99380.47
2022-08-23T17:20:42.077Z,99392.13
2022-08-23T17:26:44.158Z,99393.03
2022-08-23T17:32:50.483Z,99395.06
2022-08-23T17:38:52.541Z,99385.31
2022-08-23T17:44:54.551Z,99394.25
2022-08-23T17:50:56.516Z,99395.44
2022-08-23T17:57:00.652Z,99404.22
2022-08-23T18:03:03.430Z,99400.94
2022-08-23T18:09:06.945Z,99399.19
2022-08-23T18:15:10.642Z,99404.41
2022-08-23T18:21:13.037Z,99406.44
2022-08-23T18:27:33.876Z,99410.94
2022-08-23T18:33:38.452Z,99410.72
2022-08-23T18:39:49.671Z,99415.66
2022-08-23T18:45:55.219Z,99434.53
2022-08-23T18:51:57.329Z,99440.16
2022-08-23T18:57:59.610Z,99444.31
2022-08-23T19:04:04.346Z,99459.72
2022-08-23T19:10:07.144Z,99458.50
2022-08-23T19:16:13.316Z,99468.81
2022-08-23T19:22:15.420Z,99475.03
2022-08-23T19:28:19.639Z,99482.91
2022-08-23T19:34:22.859Z,99490.34
2022-08-23T19:40:25.162Z,99488.91
2022-08-23T19:46:27.266Z,99496.25
2022-08-23T19:52:29.324Z,99511.81
2022-08-23T19:58:31.634Z,99519.47
2022-08-23T20:04:34.665Z,99521.91
2022-08-23T20:10:36.644Z,99528.53
2022-08-23T20:16:41.046Z,99537.31
2022-08-23T20:23:02.675Z,99544.22
2022-08-23T20:29:05.534Z,99548.63
2022-08-23T20:35:11.231Z,99556.88
2022-08-23T20:41:16.828Z,99546.50
2022-08-23T20:47:19.325Z,99556.94
2022-08-23T20:53:21.366Z,99565.09
2022-08-23T20:59:24.680Z,99551.41
2022-08-23T21:05:26.785Z,99551.41
2022-08-23T21:11:29.837Z,99559.34
2022-08-23T21:17:31.899Z,99560.69
2022-08-23T21:23:35.307Z,99562.91
2022-08-23T21:29:38.600Z,99561.78
2022-08-23T21:35:40.600Z,99568.31
2022-08-23T21:41:45.778Z,99566.63
2022-08-23T21:47:47.904Z,99569.06
2022-08-23T21:53:50.263Z,99581.06
2022-08-23T21:59:53.173Z,99584.81
2022-08-23T22:05:55.135Z,99576.50
2022-08-23T22:11:58.021Z,99586.19
2022-08-23T22:18:01.655Z,99578.19
2022-08-23T22:24:05.476Z,99581.66
2022-08-23T22:30:08.413Z,99579.59
2022-08-23T22:36:20.418Z,99575.22
2022-08-23T22:42:22.407Z,99571.59
2022-08-23T22:48:25.946Z,99580.41
2022-08-23T22:54:27.931Z,99586.28
2022-08-23T23:00:29.900Z,99583.19
2022-08-23T23:06:33.693Z,99577.56
2022-08-23T23:12:35.685Z,99579.97
2022-08-23T23:18:40.211Z,99577.69
2022-08-23T23:24:42.291Z,99585.09
2022-08-23T23:30:46.795Z,99582.81
2022-08-23T23:36:48.836Z,99595.31
2022-08-23T23:42:50.895Z,99597.72
2022-08-23T23:48:53.244Z,99600.63
2022-08-23T23:54:55.261Z,99606.81
